Time;durP1;ratioP1;P1;durP2;ratioP2;P2;SDS_P1;SDS_P2;PMS_P1;PMS_P2;Temp;Humidity;BMP_temperature;BMP_pressure;BME280_temperature;BME280_humidity;BME280_pressure;Samples;Min_cycle;Max_cycle;Signal;HPM_P1;HPM_P2
2022/06/07 00:01:40;;;;;;;;;;;;;;;22.84;56.84;100276.47;5356963;32;35231;-67
2022/06/07 00:04:42;;;;;;;6.90;2.97;;;;;;;22.78;57.60;100273.50;5368160;32;34220;-68
2022/06/07 00:07:45;;;;;;;4.70;2.40;;;;;;;22.31;59.05;100274.16;5356688;32;33907;-68
2022/06/07 00:10:49;;;;;;;3.35;2.05;;;;;;;22.65;58.24;100276.47;5349360;32;36002;-66
2022/06/07 00:13:51;;;;;;;6.30;2.40;;;;;;;22.86;56.24;100269.19;5383097;32;43420;-68
2022/06/07 00:16:57;;;;;;;5.15;2.30;;;;;;;22.12;59.75;100266.94;5374178;32;35428;-69
2022/06/07 00:19:59;;;;;;;4.72;2.22;;;;;;;22.50;58.00;100261.81;5398567;32;34191;-69
2022/06/07 00:23:03;;;;;;;4.90;2.30;;;;;;;22.62;57.50;100266.03;5378235;32;34106;-69
2022/06/07 00:26:05;;;;;;;3.55;2.10;;;;;;;23.04;55.85;100260.41;5363625;32;35543;-65
2022/06/07 00:29:08;;;;;;;4.03;2.00;;;;;;;22.41;57.70;100263.47;5379227;32;34180;-68
2022/06/07 00:32:11;;;;;;;6.12;2.30;;;;;;;22.40;58.10;100267.13;5356428;32;34119;-66
2022/06/07 00:35:14;;;;;;;2.92;1.92;;;;;;;22.75;56.17;100255.06;5382396;32;34103;-69
2022/06/07 00:38:16;;;;;;;4.72;2.25;;;;;;;21.95;58.52;100261.34;5353577;32;34428;-67
2022/06/07 00:41:18;;;;;;;5.47;2.05;;;;;;;21.92;59.12;100261.66;5371080;32;35360;-67
2022/06/07 00:44:20;;;;;;;6.20;2.22;;;;;;;21.81;59.46;100258.06;5366104;32;44924;-69
2022/06/07 00:47:25;;;;;;;3.67;2.30;;;;;;;21.03;62.48;100267.47;5374023;32;34129;-70
2022/06/07 00:50:36;;;;;;;4.28;2.08;;;;;;;22.38;57.92;100253.03;5374959;32;36352;-67
2022/06/07 00:53:38;;;;;;;2.67;1.95;;;;;;;21.83;59.36;100252.56;5350997;32;35686;-66
2022/06/07 00:56:40;;;;;;;;;;;;;;;21.79;59.96;100256.53;5385556;32;35863;-67
2022/06/07 00:59:43;;;;;;;3.95;2.12;;;;;;;20.98;62.90;100253.66;5383977;32;34265;-69
2022/06/07 01:02:46;;;;;;;3.70;2.20;;;;;;;21.22;62.64;100261.41;5393862;32;34041;-67
2022/06/07 01:05:49;;;;;;;4.22;2.40;;;;;;;21.64;61.30;100258.72;5366201;32;36511;-67
2022/06/07 01:12:12;;;;;;;3.33;2.20;;;;;;;21.04;63.14;100254.94;5382744;32;35269;-67
2022/06/07 01:15:14;;;;;;;7.55;2.60;;;;;;;20.53;65.46;100253.84;5365005;32;35379;-68
2022/06/07 01:18:16;;;;;;;3.90;2.35;;;;;;;21.02;64.20;100252.41;5386623;32;35182;-67
2022/06/07 01:21:21;;;;;;;3.55;2.40;;;;;;;21.03;64.21;100253.25;5375768;32;34547;-69
2022/06/07 01:24:23;;;;;;;6.87;2.70;;;;;;;21.86;61.02;100230.91;5372503;32;44706;-66
2022/06/07 01:27:25;;;;;;;5.80;2.87;;;;;;;22.43;58.54;100229.38;5360968;32;32293;-69
2022/06/07 01:30:28;;;;;;;4.47;2.97;;;;;;;21.68;61.56;100233.37;5343211;32;35415;-70
2022/06/07 01:33:30;;;;;;;4.07;2.67;;;;;;;22.43;58.97;100235.59;5401511;32;34036;-69
2022/06/07 01:36:33;;;;;;;4.55;2.42;;;;;;;22.36;59.11;100231.78;5384469;32;34026;-67
2022/06/07 01:42:55;;;;;;;7.60;3.30;;;;;;;21.63;62.07;100230.25;5383896;32;46564;-67
2022/06/07 01:46:03;;;;;;;5.18;2.70;;;;;;;21.49;62.60;100227.97;5355776;32;33445;-68
2022/06/07 01:49:05;;;;;;;4.87;2.75;;;;;;;21.83;61.68;100225.81;5401310;32;33971;-65
2022/06/07 01:52:09;;;;;;;4.45;2.80;;;;;;;21.19;64.21;100234.97;5369874;32;33979;-68
2022/06/07 01:55:11;;;;;;;4.22;2.70;;;;;;;21.18;64.37;100227.91;5400069;32;34105;-66
2022/06/07 01:58:13;;;;;;;4.32;2.85;;;;;;;21.13;65.04;100234.63;5368825;32;34797;-68
2022/06/07 02:01:15;;;;;;;3.75;2.87;;;;;;;21.13;64.69;100227.47;5396598;32;34798;-67
2022/06/07 02:04:21;;;;;;;4.75;3.00;;;;;;;21.62;61.67;100221.41;5356913;32;35448;-66
2022/06/07 02:07:23;;;;;;;5.82;2.87;;;;;;;21.63;62.12;100222.25;5349863;32;45142;-68
2022/06/07 02:10:25;;;;;;;6.80;3.65;;;;;;;21.78;61.37;100223.59;5360852;32;34230;-70
2022/06/07 02:13:29;;;;;;;4.87;2.80;;;;;;;20.74;65.20;100224.53;5384741;32;34424;-67
2022/06/07 02:16:32;;;;;;;5.93;2.95;;;;;;;20.83;64.52;100220.22;5393983;32;35488;-69
2022/06/07 02:19:35;;;;;;;6.57;2.80;;;;;;;20.81;64.46;100216.84;5364285;32;34310;-68
2022/06/07 02:22:37;;;;;;;4.28;2.40;;;;;;;21.59;61.94;100202.97;5371948;32;34181;-68
2022/06/07 02:25:45;;;;;;;5.97;3.30;;;;;;;22.02;59.67;100200.97;5382158;32;34205;-67
2022/06/07 02:28:51;;;;;;;4.15;2.45;;;;;;;21.92;59.95;100197.44;5382927;32;34843;-68
2022/06/07 02:31:57;;;;;;;5.60;2.60;;;;;;;20.91;63.84;100193.69;5398994;32;44336;-68
2022/06/07 02:35:00;;;;;;;6.68;3.03;;;;;;;20.44;65.68;100206.53;5367422;32;35539;-66
2022/06/07 02:38:02;;;;;;;4.95;2.95;;;;;;;20.44;66.47;100203.88;5376719;32;35583;-67
2022/06/07 02:41:07;;;;;;;4.97;2.42;;;;;;;20.46;66.52;100195.75;5371789;32;35253;-69
2022/06/07 02:44:09;;;;;;;6.45;2.50;;;;;;;20.60;65.92;100192.78;5372074;32;34132;-67
2022/06/07 02:47:12;;;;;;;4.35;2.92;;;;;;;20.64;65.50;100204.91;5384903;32;34189;-68
2022/06/07 02:50:14;;;;;;;8.07;2.90;;;;;;;20.73;65.10;100201.44;5381766;32;35590;-66
2022/06/07 02:53:16;;;;;;;4.97;2.70;;;;;;;20.61;65.37;100206.97;5402879;32;35341;-66
2022/06/07 02:56:18;;;;;;;4.50;2.72;;;;;;;20.00;68.43;100212.84;5384599;32;35840;-69
2022/06/07 02:59:20;;;;;;;8.40;3.35;;;;;;;20.49;66.09;100201.69;5400734;32;47040;-70
2022/06/07 03:02:23;;;;;;;7.97;3.60;;;;;;;20.13;68.16;100202.87;5381893;32;35369;-64
2022/06/07 03:05:25;;;;;;;8.65;3.72;;;;;;;20.15;68.62;100197.41;5368456;32;34205;-65
2022/06/07 03:08:29;;;;;;;8.63;3.78;;;;;;;19.99;69.80;100211.16;5384427;32;33955;-67
2022/06/07 03:11:32;;;;;;;5.78;3.65;;;;;;;20.02;69.99;100213.56;5352265;32;33998;-67
2022/06/07 03:14:34;;;;;;;7.85;4.00;;;;;;;20.19;68.75;100209.53;5394401;32;34011;-69
2022/06/07 03:17:37;;;;;;;6.68;3.70;;;;;;;20.01;69.73;100207.38;5372670;32;34788;-69
2022/06/07 03:20:40;;;;;;;6.95;3.80;;;;;;;19.97;70.12;100210.44;5380575;32;34075;-65
2022/06/07 03:23:43;;;;;;;9.00;3.97;;;;;;;20.71;67.03;100210.56;5381634;32;35383;-65
2022/06/07 03:26:45;;;;;;;10.52;4.03;;;;;;;20.02;69.61;100203.75;5377687;32;35610;-66
2022/06/07 03:29:47;;;;;;;9.77;3.50;;;;;;;20.13;68.58;100199.34;5375265;32;34332;-65
2022/06/07 03:32:49;;;;;;;8.73;4.72;;;;;;;20.95;65.91;100202.31;5365536;32;44468;-70
2022/06/07 03:35:51;;;;;;;9.80;4.05;;;;;;;20.83;65.99;100205.03;5394614;32;35724;-67
2022/06/07 03:38:55;;;;;;;8.10;4.15;;;;;;;20.94;65.87;100201.47;5367634;32;33948;-69
2022/06/07 03:41:57;;;;;;;7.93;3.87;;;;;;;20.53;67.59;100197.78;5381485;32;35078;-69
2022/06/07 03:44:59;;;;;;;10.75;4.10;;;;;;;20.57;67.51;100202.87;5387301;32;34166;-67
2022/06/07 03:48:02;;;;;;;11.90;3.80;;;;;;;20.53;67.75;100207.63;5370259;32;35036;-68
2022/06/07 03:51:04;;;;;;;6.00;3.40;;;;;;;20.60;66.86;100191.94;5401132;32;35200;-67
2022/06/07 03:54:06;;;;;;;24.87;4.60;;;;;;;20.57;66.77;100202.87;5369532;32;34033;-68
2022/06/07 03:57:09;;;;;;;9.35;4.00;;;;;;;20.83;65.26;100201.53;5403159;32;34683;-66
2022/06/07 04:00:12;;;;;;;8.18;4.07;;;;;;;20.79;65.91;100197.41;5371398;32;34901;-70
2022/06/07 04:03:14;;;;;;;9.35;4.37;;;;;;;20.93;66.13;100206.91;5381789;32;35388;-67
2022/06/07 04:06:20;;;;;;;6.30;3.62;;;;;;;21.93;62.12;100199.97;5387802;32;34381;-67
2022/06/07 04:09:22;;;;;;;6.87;3.75;;;;;;;21.62;62.22;100199.16;5369796;32;44450;-68
2022/06/07 04:12:24;;;;;;;7.50;3.67;;;;;;;21.28;63.90;100187.88;5397728;32;34782;-68
2022/06/07 04:15:26;;;;;;;7.93;4.00;;;;;;;21.40;62.77;100196.69;5380049;32;35493;-70
2022/06/07 04:18:28;;;;;;;10.13;3.97;;;;;;;21.32;63.39;100179.50;5379778;32;35299;-68
2022/06/07 04:21:30;;;;;;;7.50;3.40;;;;;;;22.08;60.62;100179.84;5370458;32;34093;-69
2022/06/07 04:24:33;;;;;;;8.35;4.30;;;;;;;22.77;58.40;100178.06;5375209;32;33849;-67
2022/06/07 04:27:35;;;;;;;9.35;4.28;;;;;;;22.61;58.59;100178.66;5392028;32;34954;-68
2022/06/07 04:30:38;;;;;;;6.35;3.42;;;;;;;22.78;57.97;100174.38;5382816;32;34121;-68
2022/06/07 04:33:41;;;;;;;6.18;3.37;;;;;;;23.33;56.97;100169.19;5386756;32;33880;-69
2022/06/07 04:36:44;;;;;;;12.45;3.78;;;;;;;24.03;53.49;100165.87;5384184;32;34289;-69
2022/06/07 04:39:46;;;;;;;;;;;;;;;24.80;51.55;100161.72;5377701;32;34199;-69
2022/06/07 04:42:48;;;;;;;9.53;4.67;;;;;;;25.28;49.60;100152.31;5384468;32;35321;-67
2022/06/07 04:45:50;;;;;;;11.70;3.75;;;;;;;26.10;47.73;100153.47;5375944;32;44452;-66
2022/06/07 04:48:54;;;;;;;6.22;3.25;;;;;;;26.59;46.22;100156.19;5392696;32;35505;-71
2022/06/07 04:51:56;;;;;;;11.45;5.15;;;;;;;25.62;48.27;100152.28;5382687;32;35969;-69
2022/06/07 04:54:58;;;;;;;;;;;;;;;26.18;46.73;100150.78;5400274;32;34046;-67
2022/06/07 04:58:00;;;;;;;3.50;2.12;;;;;;;26.01;46.96;100156.28;5383786;32;35160;-68
2022/06/07 05:01:07;;;;;;;;;;;;;;;26.87;44.63;100163.94;5399950;32;34181;-67
2022/06/07 05:04:10;;;;;;;5.53;2.47;;;;;;;26.84;44.66;100165.13;5370342;32;35831;-70
2022/06/07 05:07:12;;;;;;;10.38;4.50;;;;;;;27.36;43.69;100161.16;5372950;32;35864;-66
2022/06/07 05:10:16;;;;;;;6.97;2.65;;;;;;;26.67;45.63;100163.47;5381883;32;35083;-70
2022/06/07 05:13:18;;;;;;;5.47;2.60;;;;;;;28.12;41.38;100159.63;5381201;32;35417;-67
2022/06/07 05:16:21;;;;;;;8.00;4.82;;;;;;;28.36;41.08;100164.91;5380901;32;44516;-67
2022/06/07 05:19:23;;;;;;;6.47;2.53;;;;;;;28.62;40.31;100166.41;5339849;32;34085;-68
2022/06/07 05:22:27;;;;;;;2.85;2.20;;;;;;;29.02;39.50;100163.31;5391094;32;35905;-68
2022/06/07 05:25:29;;;;;;;4.25;2.50;;;;;;;26.57;44.84;100169.00;5372868;32;33317;-69
2022/06/07 05:28:32;;;;;;;8.27;2.72;;;;;;;28.73;40.51;100169.50;5383513;32;34969;-67
2022/06/07 05:31:34;;;;;;;4.87;2.87;;;;;;;30.37;36.77;100168.41;5386275;32;34033;-67
2022/06/07 05:34:37;;;;;;;7.90;2.85;;;;;;;29.15;39.14;100168.09;5355704;32;34108;-67
2022/06/07 05:37:39;;;;;;;5.70;2.50;;;;;;;29.38;37.90;100158.03;5395989;32;34138;-67
2022/06/07 05:40:41;;;;;;;18.50;5.20;;;;;;;30.05;37.24;100170.53;5364273;32;36027;-67
2022/06/07 05:43:43;;;;;;;9.60;3.10;;;;;;;29.75;37.72;100174.34;5392437;32;34361;-78
2022/06/07 05:46:48;;;;;;;6.07;2.35;;;;;;;29.11;38.92;100178.47;5379332;32;35366;-72
2022/06/07 05:49:50;;;;;;;6.22;2.25;;;;;;;27.21;42.52;100177.22;5367470;32;44262;-65
2022/06/07 05:52:52;;;;;;;5.72;2.33;;;;;;;28.63;39.88;100170.78;5391598;32;34023;-81
2022/06/07 05:55:54;;;;;;;6.62;3.03;;;;;;;28.14;41.16;100173.78;5349608;32;35479;-64
2022/06/07 05:58:57;;;;;;;3.72;2.15;;;;;;;29.70;37.32;100165.97;5385313;32;33937;-65
2022/06/07 06:02:00;;;;;;;8.27;1.83;;;;;;;31.11;34.55;100151.69;5365457;32;35042;-69
2022/06/07 06:05:03;;;;;;;3.78;1.90;;;;;;;28.79;38.42;100157.12;5371446;32;35534;-63
2022/06/07 06:11:27;;;;;;;5.70;2.15;;;;;;;29.24;38.56;100171.53;5373902;32;44465;-71
2022/06/07 06:14:30;;;;;;;5.50;2.28;;;;;;;29.16;38.15;100167.06;5391790;32;33809;-65
2022/06/07 06:17:32;;;;;;;9.27;2.62;;;;;;;28.86;38.84;100160.78;5376780;32;34916;-66
2022/06/07 06:20:35;;;;;;;9.60;3.15;;;;;;;29.58;37.19;100163.75;5385250;32;33980;-72
2022/06/07 06:23:37;;;;;;;5.62;1.95;;;;;;;29.90;36.65;100165.19;5372658;32;33916;-65
2022/06/07 06:26:40;;;;;;;6.22;3.47;;;;;;;29.79;36.58;100162.13;5382644;32;35298;-74
2022/06/07 06:29:42;;;;;;;5.53;2.30;;;;;;;29.24;37.82;100172.41;5372736;32;34031;-66
2022/06/07 06:32:45;;;;;;;3.30;2.10;;;;;;;29.60;37.31;100158.97;5381772;32;35418;-70
2022/06/07 06:35:49;;;;;;;7.45;1.95;;;;;;;30.81;34.09;100153.81;5374775;32;35359;-74
2022/06/07 06:38:51;;;;;;;3.75;1.90;;;;;;;29.53;36.91;100160.75;5359497;32;43233;-65
2022/06/07 06:41:54;;;;;;;5.93;2.60;;;;;;;30.44;35.14;100147.59;5389923;32;34700;-64
2022/06/07 06:44:58;;;;;;;5.57;2.00;;;;;;;30.68;34.12;100155.37;5367808;32;35440;-65
2022/06/07 06:48:01;;;;;;;4.15;2.22;;;;;;;29.01;36.67;100158.94;5383156;32;34276;-66
2022/06/07 06:51:05;;;;;;;3.47;1.80;;;;;;;29.75;35.38;100148.09;5374193;32;35133;-64
2022/06/07 06:54:11;;;;;;;6.57;2.20;;;;;;;29.62;34.57;100148.78;5365283;32;34084;-73
2022/06/07 06:57:13;;;;;;;3.03;1.87;;;;;;;29.82;34.96;100150.88;5392164;32;35210;-74
2022/06/07 07:00:16;;;;;;;4.47;2.00;;;;;;;30.26;33.70;100144.50;5377304;32;34275;-65
2022/06/07 07:03:18;;;;;;;9.98;2.58;;;;;;;30.79;32.97;100142.31;5390769;32;34087;-64
2022/06/07 07:06:22;;;;;;;7.50;1.70;;;;;;;31.63;31.39;100140.31;5375129;32;44321;-66
2022/06/07 07:09:26;;;;;;;5.05;1.83;;;;;;;31.31;31.47;100138.28;5377057;32;34551;-66
2022/06/07 07:12:34;;;;;;;5.25;1.73;;;;;;;32.05;30.62;100133.78;5392619;32;32494;-68
2022/06/07 07:15:36;;;;;;;3.67;1.52;;;;;;;34.88;26.31;100134.97;5374795;32;34301;-71
2022/06/07 07:18:39;;;;;;;4.47;1.87;;;;;;;32.91;28.83;100138.47;5391569;32;34155;-72
2022/06/07 07:21:43;;;;;;;2.33;1.60;;;;;;;33.13;28.32;100141.81;5362571;32;34215;-67
2022/06/07 07:24:46;;;;;;;3.50;1.60;;;;;;;32.97;28.40;100144.97;5376727;32;34097;-68
2022/06/07 07:27:50;;;;;;;5.95;3.33;;;;;;;31.32;31.04;100132.66;5386802;32;34122;-77
2022/06/07 07:31:03;;;;;;;6.47;2.40;;;;;;;34.07;25.99;100124.03;5375094;32;46401;-66
2022/06/07 07:34:10;;;;;;;4.43;2.00;;;;;;;34.01;26.56;100123.06;5373478;32;35363;-69
2022/06/07 07:37:12;;;;;;;2.70;1.50;;;;;;;35.26;25.05;100115.69;5314674;32;35685;-67
2022/06/07 07:40:14;;;;;;;5.00;1.48;;;;;;;33.67;26.13;100118.78;5319980;32;35831;-72
2022/06/07 07:43:17;;;;;;;4.60;2.10;;;;;;;34.75;25.63;100113.25;5331093;32;34094;-68
2022/06/07 07:46:21;;;;;;;3.83;1.58;;;;;;;32.38;29.29;100126.75;5330885;32;46098;-70
2022/06/07 07:49:24;;;;;;;7.00;2.75;;;;;;;35.24;25.15;100111.53;5340404;32;35620;-71
2022/06/07 07:52:27;;;;;;;2.03;1.50;;;;;;;32.77;28.76;100117.75;5326994;32;32528;-65
2022/06/07 07:55:29;;;;;;;3.85;1.37;;;;;;;34.84;25.37;100111.91;5340470;32;34756;-67
2022/06/07 07:58:31;;;;;;;5.45;1.58;;;;;;;33.95;26.74;100115.75;5326090;32;35286;-66
2022/06/07 08:01:36;;;;;;;4.37;1.62;;;;;;;33.84;26.94;100116.41;5340490;32;32914;-69
2022/06/07 08:04:38;;;;;;;1.45;0.98;;;;;;;33.39;27.37;100105.50;5325752;32;37522;-63
2022/06/07 08:07:45;;;;;;;9.00;2.67;;;;;;;36.82;22.25;100099.34;5334353;32;34189;-65
2022/06/07 08:10:59;;;;;;;1.67;1.10;;;;;;;36.69;23.71;100105.06;5327911;32;44396;-66
2022/06/07 08:14:03;;;;;;;7.90;1.70;;;;;;;35.19;24.53;100094.97;5328726;32;35241;-68
2022/06/07 08:17:06;;;;;;;3.62;1.48;;;;;;;35.13;25.09;100099.44;5344503;32;33979;-70
2022/06/07 08:20:11;;;;;;;1.50;1.30;;;;;;;34.55;26.44;100094.34;5319926;32;35789;-69
2022/06/07 08:23:16;;;;;;;2.80;1.30;;;;;;;37.74;21.78;100084.84;5330659;32;35899;-73
2022/06/07 08:26:19;;;;;;;4.07;2.53;;;;;;;38.30;20.99;100080.44;5332539;32;35540;-65
2022/06/07 08:29:24;;;;;;;7.75;2.03;;;;;;;38.52;21.15;100075.03;5332305;32;44270;-67
2022/06/07 08:32:26;;;;;;;4.62;1.58;;;;;;;36.81;22.87;100089.47;5343194;32;35564;-71
2022/06/07 08:38:49;;;;;;;2.03;1.30;;;;;;;37.18;21.81;100084.56;5326852;32;44884;-65
2022/06/07 08:42:23;;;;;;;16.00;3.15;;;;;;;36.41;22.94;100076.50;5331338;32;34007;-64
2022/06/07 08:45:32;;;;;;;3.75;1.42;;;;;;;36.95;21.73;100077.22;5329049;32;46447;-71
2022/06/07 08:48:36;;;;;;;2.72;1.40;;;;;;;35.39;24.04;100070.97;5342845;32;33825;-66
2022/06/07 08:51:58;;;;;;;1.95;1.23;;;;;;;34.94;25.10;100079.50;5332856;32;34656;-71
2022/06/07 08:55:02;;;;;;;1.90;1.20;;;;;;;36.60;22.70;100075.31;5334703;32;36821;-64
2022/06/07 08:58:37;;;;;;;5.93;1.20;;;;;;;35.87;23.57;100064.66;5341972;32;34060;-64
2022/06/07 09:02:04;;;;;;;4.18;1.50;;;;;;;37.80;20.99;100064.72;5321169;32;34350;-66
2022/06/07 09:05:12;;;;;;;3.60;1.37;;;;;;;36.96;21.93;100067.91;5342641;32;35422;-67
2022/06/07 09:08:14;;;;;;;3.37;1.33;;;;;;;39.67;18.47;100051.28;5334835;32;35444;-69
2022/06/07 09:12:14;;;;;;;1.10;1.00;;;;;;;36.01;22.70;100065.34;5324731;32;35346;-69
2022/06/07 09:15:19;;;;;;;3.10;1.10;;;;;;;37.54;20.84;100055.97;5341812;32;34394;-70
2022/06/07 09:18:25;;;;;;;1.62;1.20;;;;;;;36.71;21.70;100056.34;5330459;32;45533;-64
2022/06/07 09:21:30;;;;;;;2.50;1.50;;;;;;;37.75;20.43;100051.72;5335804;32;34139;-67
2022/06/07 09:24:50;;;;;;;3.12;1.20;;;;;;;34.68;24.48;100055.19;5330580;32;34598;-65
2022/06/07 09:27:53;;;;;;;1.75;1.12;;;;;;;37.01;21.23;100043.38;5334510;32;43130;-68
2022/06/07 09:31:03;;;;;;;2.12;1.05;;;;;;;36.63;21.92;100045.78;5343963;32;34111;-68
2022/06/07 09:34:07;;;;;;;1.10;1.00;;;;;;;36.61;22.03;100041.38;5316096;32;34102;-69
2022/06/07 09:37:16;;;;;;;3.97;1.17;;;;;;;40.48;17.20;100031.94;5316603;32;33995;-66
2022/06/07 09:40:31;;;;;;;2.33;1.25;;;;;;;37.45;20.71;100034.69;5313232;32;34054;-68
2022/06/07 09:43:42;;;;;;;1.67;0.93;;;;;;;38.72;18.71;100029.50;5332413;32;31904;-63
2022/06/07 09:46:50;;;;;;;0.80;0.80;;;;;;;38.77;18.52;100027.88;5340213;32;35737;-67
2022/06/07 09:50:10;;;;;;;1.40;1.30;;;;;;;40.22;17.08;100022.66;5328520;32;45783;-71
2022/06/07 09:53:16;;;;;;;4.45;1.33;;;;;;;37.09;20.71;100034.78;5336408;32;34581;-68
2022/06/07 09:56:51;;;;;;;2.05;1.40;;;;;;;33.83;25.13;100030.25;5338170;32;44997;-77
2022/06/07 10:00:40;;;;;;;2.67;1.58;;;;;;;36.54;21.75;100028.91;5324587;32;45070;-67
2022/06/07 10:04:42;;;;;;;3.10;1.35;;;;;;;33.53;25.44;100021.84;5333026;32;33261;-68
2022/06/07 10:07:53;;;;;;;9.57;3.33;;;;;;;36.24;22.03;100009.81;5334805;32;35551;-66
2022/06/07 10:11:04;;;;;;;1.95;1.10;;;;;;;36.59;21.30;100013.44;5325108;32;44550;-70
2022/06/07 10:14:14;;;;;;;2.70;1.40;;;;;;;38.36;19.20;100005.31;5339351;32;33941;-80
2022/06/07 10:17:44;;;;;;;2.55;1.30;;;;;;;38.96;18.71;99994.34;5334843;32;34963;-65
2022/06/07 10:21:15;;;;;;;2.78;1.50;;;;;;;38.71;19.18;99994.91;5326720;32;35308;-67
2022/06/07 10:24:20;;;;;;;;;;;;;;;37.13;20.84;99999.53;5336884;32;35052;-66
2022/06/07 10:27:28;;;;;;;2.45;1.27;;;;;;;38.46;19.49;99997.25;5328559;32;44567;-66
2022/06/07 10:30:38;;;;;;;1.30;1.20;;;;;;;40.97;16.82;99985.69;5332785;32;35180;-66
2022/06/07 10:33:48;;;;;;;2.35;1.10;;;;;;;41.39;16.37;99982.78;5342643;32;35240;-66
2022/06/07 10:37:29;;;;;;;3.28;1.30;;;;;;;39.17;18.29;99990.00;5318592;32;44606;-67
2022/06/07 10:41:00;;;;;;;4.18;1.40;;;;;;;38.85;18.69;99980.78;5311612;32;35362;-66
2022/06/07 10:44:21;;;;;;;3.35;1.17;;;;;;;37.93;19.84;99979.38;5299131;32;35637;-68
2022/06/07 10:47:31;;;;;;;1.20;1.10;;;;;;;39.97;17.64;99973.72;5320675;32;44570;-73
2022/06/07 10:54:58;;;;;;;1.95;1.10;;;;;;;39.74;17.16;99962.00;5333815;32;34152;-70
2022/06/07 10:58:21;;;;;;;1.10;1.10;;;;;;;36.58;20.21;99972.59;5328314;32;32827;-72
2022/06/07 11:01:32;;;;;;;5.57;2.30;;;;;;;38.08;18.85;99949.47;5336584;32;44462;-66
2022/06/07 11:11:42;;;;;;;6.25;3.53;;;;;;;35.83;21.77;99950.53;5339478;32;34980;-68
2022/06/07 11:15:06;;;;;;;8.18;1.60;;;;;;;38.89;18.26;99935.22;5327886;32;36597;-64
2022/06/07 11:18:35;;;;;;;5.90;1.55;;;;;;;35.44;21.91;99940.00;5337945;32;34054;-83
2022/06/07 11:21:40;;;;;;;2.92;1.25;;;;;;;38.59;18.49;99931.00;5337600;32;34267;-68
2022/06/07 11:25:17;;;;;;;4.00;1.30;;;;;;;39.43;17.12;99930.59;5323415;32;34134;-69
2022/06/07 11:28:24;;;;;;;3.65;1.08;;;;;;;39.34;17.25;99912.91;5342903;32;33680;-71
2022/06/07 11:31:42;;;;;;;5.95;1.40;;;;;;;39.51;17.09;99926.53;5325690;32;34151;-67
2022/06/07 11:34:44;;;;;;;3.47;1.60;;;;;;;38.08;18.63;99918.44;5319685;32;36184;-68
2022/06/07 11:37:54;;;;;;;2.30;1.20;;;;;;;35.96;20.85;99918.38;5335681;32;33948;-67
2022/06/07 11:41:36;;;;;;;2.37;1.17;;;;;;;38.99;17.52;99907.88;5314176;32;44579;-67
2022/06/07 11:44:20;;;;;;;4.05;1.27;;;;;;;38.07;18.11;99906.66;5335622;32;44669;-72
2022/06/07 11:47:26;;;;;;;1.65;1.00;;;;;;;36.64;19.49;99907.84;5331388;32;34147;-74
2022/06/07 11:50:31;;;;;;;5.03;1.52;;;;;;;40.10;15.93;99900.91;5322806;32;33902;-69
2022/06/07 11:53:37;;;;;;;3.95;1.20;;;;;;;40.34;15.83;99897.47;5340918;32;33924;-75
2022/06/07 11:56:45;;;;;;;5.45;1.25;;;;;;;38.85;17.27;99892.88;5328841;32;35725;-66
2022/06/07 11:59:50;;;;;;;5.90;1.40;;;;;;;38.18;18.08;99894.72;5336303;32;34814;-66
2022/06/07 12:03:00;;;;;;;3.45;1.10;;;;;;;39.48;16.61;99877.56;5327179;32;44329;-71
2022/06/07 12:06:16;;;;;;;5.00;1.55;;;;;;;36.78;19.39;99871.75;5325727;32;32579;-68
2022/06/07 12:09:18;;;;;;;2.45;1.10;;;;;;;34.54;21.95;99881.75;5333721;32;34131;-68
2022/06/07 12:12:23;;;;;;;5.93;1.02;;;;;;;34.43;22.10;99878.72;5328734;32;44459;-66
2022/06/07 12:15:42;;;;;;;4.00;1.20;;;;;;;34.64;21.43;99876.56;5335816;32;35341;-70
2022/06/07 12:18:51;;;;;;;2.55;1.60;;;;;;;34.38;21.73;99869.50;5325796;32;35709;-70
2022/06/07 12:22:05;;;;;;;6.12;1.67;;;;;;;32.86;24.02;99872.44;5321971;32;44572;-73
2022/06/07 12:25:17;;;;;;;3.95;1.50;;;;;;;33.87;23.53;99857.00;5335424;32;34156;-66
2022/06/07 12:28:27;;;;;;;5.70;1.70;;;;;;;32.53;25.46;99860.84;5321477;32;44813;-68
2022/06/07 12:31:37;;;;;;;3.67;1.60;;;;;;;32.67;25.51;99862.44;5334688;32;35091;-66
2022/06/07 12:34:39;;;;;;;3.35;1.70;;;;;;;31.73;26.46;99869.09;5322576;32;34077;-69
2022/06/07 12:37:47;;;;;;;6.10;1.75;;;;;;;32.72;24.85;99859.91;5304550;32;35323;-75
2022/06/07 12:40:52;;;;;;;4.15;1.75;;;;;;;32.52;24.77;99859.13;5321767;32;43775;-82
2022/06/07 12:43:57;;;;;;;2.97;1.73;;;;;;;33.34;24.16;99860.16;5326055;32;35171;-67
2022/06/07 12:47:01;;;;;;;3.55;1.70;;;;;;;33.34;23.79;99861.00;5342258;32;35492;-75
2022/06/07 12:50:24;;;;;;;2.90;1.55;;;;;;;33.03;24.03;99861.00;5328560;32;36943;-66
2022/06/07 12:53:27;;;;;;;6.75;1.83;;;;;;;33.34;23.77;99852.00;5316753;32;45198;-71
2022/06/07 12:56:36;;;;;;;4.60;2.00;;;;;;;32.71;24.20;99855.50;5327730;32;35269;-66
2022/06/07 12:59:42;;;;;;;3.00;1.80;;;;;;;32.65;24.00;99847.38;5319150;32;34019;-67
2022/06/07 13:02:47;;;;;;;6.97;2.08;;;;;;;32.49;24.22;99843.28;5333209;32;35424;-72
2022/06/07 13:05:59;;;;;;;2.37;1.73;;;;;;;32.24;25.32;99827.63;5331978;32;42610;-69
2022/06/07 13:09:06;;;;;;;7.22;2.00;;;;;;;32.17;25.60;99845.84;5339497;32;34077;-70
2022/06/07 13:12:09;;;;;;;5.72;3.00;;;;;;;31.27;27.04;99842.78;5327409;32;34237;-67
2022/06/07 13:15:35;;;;;;;2.47;1.65;;;;;;;30.99;27.20;99842.09;5325763;32;34234;-70
2022/06/07 13:18:59;;;;;;;3.80;2.00;;;;;;;31.77;25.27;99840.47;5341805;32;35878;-68
2022/06/07 13:22:12;;;;;;;2.65;2.05;;;;;;;31.90;25.91;99828.78;5327504;32;36141;-71
2022/06/07 13:25:24;;;;;;;4.60;2.40;;;;;;;32.29;25.79;99825.13;5334426;32;35521;-65
2022/06/07 13:28:29;;;;;;;6.57;2.00;;;;;;;32.37;25.93;99818.63;5334268;32;46054;-67
2022/06/07 13:31:43;;;;;;;5.25;2.00;;;;;;;33.14;24.71;99816.75;5327081;32;34686;-68
2022/06/07 13:34:53;;;;;;;5.68;2.40;;;;;;;32.09;25.71;99821.62;5344585;32;35636;-65
2022/06/07 13:38:01;;;;;;;5.65;2.40;;;;;;;32.53;25.15;99812.72;5322958;32;44480;-70
2022/06/07 13:41:09;;;;;;;3.15;2.30;;;;;;;32.37;24.89;99818.63;5328340;32;35757;-69
2022/06/07 13:44:11;;;;;;;3.55;2.20;;;;;;;32.57;24.83;99815.81;5330447;32;34341;-70
2022/06/07 13:47:35;;;;;;;2.87;2.40;;;;;;;33.21;23.78;99814.81;5334537;32;35810;-69
2022/06/07 13:54:22;;;;;;;3.87;2.40;;;;;;;33.00;23.47;99813.28;5328529;32;35910;-69
2022/06/07 13:57:25;;;;;;;5.85;2.50;;;;;;;32.66;24.28;99809.09;5333270;32;44331;-69
2022/06/07 14:00:27;;;;;;;5.50;2.70;;;;;;;33.22;24.18;99811.03;5329815;32;34243;-73
2022/06/07 14:03:29;;;;;;;4.12;2.40;;;;;;;32.28;25.24;99815.28;5316165;32;34274;-75
2022/06/07 14:06:36;;;;;;;8.60;2.92;;;;;;;31.84;26.21;99810.59;5339471;32;34329;-69
2022/06/07 14:09:39;;;;;;;5.80;2.80;;;;;;;32.91;25.06;99798.25;5326700;32;35804;-80
2022/06/07 14:12:41;;;;;;;5.85;2.42;;;;;;;33.29;24.13;99795.47;5337363;32;35742;-78
2022/06/07 14:15:46;;;;;;;4.35;2.70;;;;;;;32.90;24.50;99796.59;5329578;32;34665;-68
2022/06/07 14:18:48;;;;;;;5.45;3.00;;;;;;;32.38;25.27;99792.25;5323957;32;34920;-67
2022/06/07 14:21:51;;;;;;;4.03;2.40;;;;;;;32.34;24.83;99787.28;5339016;32;46096;-76
2022/06/07 14:24:53;;;;;;;2.92;2.42;;;;;;;32.14;25.27;99799.22;5326653;32;34873;-69
2022/06/07 14:27:56;;;;;;;4.93;2.60;;;;;;;33.05;23.94;99794.41;5343194;32;34907;-78
2022/06/07 14:30:59;;;;;;;7.00;2.78;;;;;;;32.43;25.00;99795.19;5330244;32;35003;-69
2022/06/07 14:34:02;;;;;;;5.95;2.75;;;;;;;32.21;25.18;99783.75;5334696;32;35120;-70
2022/06/07 14:37:15;;;;;;;6.30;3.17;;;;;;;32.37;25.56;99779.72;5336142;32;36502;-70
2022/06/07 14:40:20;;;;;;;9.40;3.47;;;;;;;31.73;26.40;99779.44;5305427;32;35690;-78
2022/06/07 14:43:23;;;;;;;6.78;2.70;;;;;;;31.61;26.43;99773.00;5340609;32;44834;-78
2022/06/07 14:46:25;;;;;;;6.35;3.25;;;;;;;32.18;25.62;99756.97;5330510;32;35561;-70
2022/06/07 14:49:38;;;;;;;8.68;3.25;;;;;;;31.90;26.39;99763.56;5342629;32;35678;-78
2022/06/07 14:52:40;;;;;;;9.60;3.40;;;;;;;31.33;27.27;99772.41;5328408;32;34416;-69
2022/06/07 14:55:42;;;;;;;4.85;3.20;;;;;;;31.20;27.93;99767.78;5329421;32;35138;-76
2022/06/07 14:58:45;;;;;;;6.87;3.40;;;;;;;31.72;27.31;99772.34;5345688;32;34947;-78
2022/06/07 15:01:53;;;;;;;6.62;3.45;;;;;;;32.18;26.50;99763.25;5329683;32;34782;-68